sensor_id;sensor_type;location;lat;lon;timestamp;pressure;altitude;pressure_sealevel;temperature;humidity
59650;BME280;46162;57.568;25.814;2023-06-19T00:00:21;100951.88;;;19.05;100.00
59650;BME280;46162;57.568;25.814;2023-06-19T00:02:50;100945.47;;;18.91;100.00
59650;BME280;46162;57.568;25.814;2023-06-19T00:05:21;100946.31;;;18.91;100.00
59650;BME280;46162;57.568;25.814;2023-06-19T00:07:50;100941.88;;;18.90;100.00
59650;BME280;46162;57.568;25.814;2023-06-19T00:10:19;100948.84;;;18.93;100.00
59650;BME280;46162;57.568;25.814;2023-06-19T00:12:48;100958.50;;;18.89;100.00
59650;BME280;46162;57.568;25.814;2023-06-19T00:15:17;100959.31;;;18.83;100.00
59650;BME280;46162;57.568;25.814;2023-06-19T00:17:45;100958.78;;;18.73;100.00
59650;BME280;46162;57.568;25.814;2023-06-19T00:20:14;100959.19;;;18.69;100.00
59650;BME280;46162;57.568;25.814;2023-06-19T00:22:44;100958.66;;;18.81;100.00
59650;BME280;46162;57.568;25.814;2023-06-19T00:25:19;100966.63;;;18.76;100.00
59650;BME280;46162;57.568;25.814;2023-06-19T00:27:50;100956.56;;;18.83;100.00
59650;BME280;46162;57.568;25.814;2023-06-19T00:30:18;100957.53;;;18.75;100.00
59650;BME280;46162;57.568;25.814;2023-06-19T00:32:47;100956.69;;;18.75;100.00
59650;BME280;46162;57.568;25.814;2023-06-19T00:35:17;100953.41;;;18.58;100.00
59650;BME280;46162;57.568;25.814;2023-06-19T00:37:48;100957.41;;;18.62;100.00
59650;BME280;46162;57.568;25.814;2023-06-19T00:40:25;100952.47;;;18.72;100.00
59650;BME280;46162;57.568;25.814;2023-06-19T00:42:55;100957.81;;;18.59;100.00
59650;BME280;46162;57.568;25.814;2023-06-19T00:45:23;100959.81;;;18.43;100.00
59650;BME280;46162;57.568;25.814;2023-06-19T00:47:57;100956.22;;;18.64;100.00
59650;BME280;46162;57.568;25.814;2023-06-19T00:50:27;100963.94;;;18.61;100.00
59650;BME280;46162;57.568;25.814;2023-06-19T00:53:00;100960.16;;;18.62;100.00
59650;BME280;46162;57.568;25.814;2023-06-19T00:55:32;100959.53;;;18.60;100.00
59650;BME280;46162;57.568;25.814;2023-06-19T00:58:01;100961.31;;;18.74;100.00
59650;BME280;46162;57.568;25.814;2023-06-19T01:00:31;100959.56;;;18.66;100.00
59650;BME280;46162;57.568;25.814;2023-06-19T01:02:59;100961.28;;;18.67;100.00
59650;BME280;46162;57.568;25.814;2023-06-19T01:05:28;100963.69;;;18.56;100.00
59650;BME280;46162;57.568;25.814;2023-06-19T01:08:02;100968.72;;;18.52;100.00
59650;BME280;46162;57.568;25.814;2023-06-19T01:10:36;100971.56;;;18.44;100.00
59650;BME280;46162;57.568;25.814;2023-06-19T01:13:10;100973.28;;;18.45;100.00
59650;BME280;46162;57.568;25.814;2023-06-19T01:15:42;100964.09;;;18.53;100.00
59650;BME280;46162;57.568;25.814;2023-06-19T01:18:11;100962.28;;;18.38;100.00
59650;BME280;46162;57.568;25.814;2023-06-19T01:20:42;100967.16;;;18.21;100.00
59650;BME280;46162;57.568;25.814;2023-06-19T01:23:12;100976.19;;;18.22;100.00
59650;BME280;46162;57.568;25.814;2023-06-19T01:25:41;100972.88;;;18.05;100.00
59650;BME280;46162;57.568;25.814;2023-06-19T01:28:11;100963.19;;;18.24;100.00
59650;BME280;46162;57.568;25.814;2023-06-19T01:30:41;100977.97;;;18.08;100.00
59650;BME280;46162;57.568;25.814;2023-06-19T01:33:15;100976.84;;;18.24;100.00
59650;BME280;46162;57.568;25.814;2023-06-19T01:35:46;100970.75;;;18.22;100.00
59650;BME280;46162;57.568;25.814;2023-06-19T01:38:17;100980.56;;;18.16;100.00
59650;BME280;46162;57.568;25.814;2023-06-19T01:40:46;100976.78;;;18.17;100.00
59650;BME280;46162;57.568;25.814;2023-06-19T01:43:17;100977.56;;;18.11;100.00
59650;BME280;46162;57.568;25.814;2023-06-19T01:45:47;100969.06;;;18.21;100.00
59650;BME280;46162;57.568;25.814;2023-06-19T01:48:15;100975.03;;;18.10;100.00
59650;BME280;46162;57.568;25.814;2023-06-19T01:50:45;100979.88;;;18.08;100.00
59650;BME280;46162;57.568;25.814;2023-06-19T01:53:17;100983.47;;;18.15;100.00
59650;BME280;46162;57.568;25.814;2023-06-19T01:55:46;100980.91;;;18.28;100.00
59650;BME280;46162;57.568;25.814;2023-06-19T01:58:16;100975.94;;;18.17;100.00
59650;BME280;46162;57.568;25.814;2023-06-19T02:00:45;100982.19;;;18.11;100.00
59650;BME280;46162;57.568;25.814;2023-06-19T02:03:14;100976.41;;;17.99;100.00
59650;BME280;46162;57.568;25.814;2023-06-19T02:05:43;100974.72;;;17.98;100.00
59650;BME280;46162;57.568;25.814;2023-06-19T02:08:11;100976.31;;;17.77;100.00
59650;BME280;46162;57.568;25.814;2023-06-19T02:10:41;100972.03;;;17.68;100.00
59650;BME280;46162;57.568;25.814;2023-06-19T02:13:11;100970.16;;;17.69;100.00
59650;BME280;46162;57.568;25.814;2023-06-19T02:15:40;100973.81;;;17.76;100.00
59650;BME280;46162;57.568;25.814;2023-06-19T02:18:08;100979.91;;;17.93;100.00
59650;BME280;46162;57.568;25.814;2023-06-19T02:20:37;100970.94;;;17.99;100.00
59650;BME280;46162;57.568;25.814;2023-06-19T02:23:06;100969.13;;;18.06;100.00
59650;BME280;46162;57.568;25.814;2023-06-19T02:25:34;100969.34;;;17.90;100.00
59650;BME280;46162;57.568;25.814;2023-06-19T02:28:07;100963.06;;;17.89;100.00
59650;BME280;46162;57.568;25.814;2023-06-19T02:30:36;100962.47;;;17.94;100.00
59650;BME280;46162;57.568;25.814;2023-06-19T02:33:05;100953.75;;;17.83;100.00
59650;BME280;46162;57.568;25.814;2023-06-19T02:35:33;100962.22;;;17.89;100.00
59650;BME280;46162;57.568;25.814;2023-06-19T02:38:02;100959.34;;;17.97;100.00
59650;BME280;46162;57.568;25.814;2023-06-19T02:40:32;100960.50;;;17.73;100.00
59650;BME280;46162;57.568;25.814;2023-06-19T02:43:00;100953.63;;;17.77;100.00
59650;BME280;46162;57.568;25.814;2023-06-19T02:45:30;100956.88;;;17.80;100.00
59650;BME280;46162;57.568;25.814;2023-06-19T02:47:59;100963.53;;;17.93;100.00
59650;BME280;46162;57.568;25.814;2023-06-19T02:50:28;100959.09;;;17.92;100.00
59650;BME280;46162;57.568;25.814;2023-06-19T02:52:56;100953.88;;;17.97;100.00
59650;BME280;46162;57.568;25.814;2023-06-19T02:55:25;100953.34;;;17.87;100.00
59650;BME280;46162;57.568;25.814;2023-06-19T02:57:56;100950.63;;;17.72;100.00
59650;BME280;46162;57.568;25.814;2023-06-19T03:00:24;100954.78;;;17.68;100.00
59650;BME280;46162;57.568;25.814;2023-06-19T03:02:58;100959.50;;;17.74;100.00
59650;BME280;46162;57.568;25.814;2023-06-19T03:05:27;100944.91;;;17.67;100.00
59650;BME280;46162;57.568;25.814;2023-06-19T03:07:55;100942.44;;;17.72;100.00
59650;BME280;46162;57.568;25.814;2023-06-19T03:10:25;100945.34;;;17.70;100.00
59650;BME280;46162;57.568;25.814;2023-06-19T03:12:53;100946.28;;;17.77;100.00
59650;BME280;46162;57.568;25.814;2023-06-19T03:15:22;100948.81;;;17.94;100.00
59650;BME280;46162;57.568;25.814;2023-06-19T03:17:52;100948.28;;;17.83;100.00
59650;BME280;46162;57.568;25.814;2023-06-19T03:20:24;100942.81;;;17.83;100.00
59650;BME280;46162;57.568;25.814;2023-06-19T03:22:56;100948.41;;;17.97;100.00
59650;BME280;46162;57.568;25.814;2023-06-19T03:25:26;100947.63;;;17.81;100.00
59650;BME280;46162;57.568;25.814;2023-06-19T03:28:03;100938.41;;;17.68;100.00
59650;BME280;46162;57.568;25.814;2023-06-19T03:30:34;100940.50;;;17.66;100.00
59650;BME280;46162;57.568;25.814;2023-06-19T03:33:02;100929.63;;;17.87;100.00
59650;BME280;46162;57.568;25.814;2023-06-19T03:35:40;100926.50;;;17.90;100.00
59650;BME280;46162;57.568;25.814;2023-06-19T03:38:16;100922.00;;;18.04;100.00
59650;BME280;46162;57.568;25.814;2023-06-19T03:40:46;100919.44;;;17.96;100.00
59650;BME280;46162;57.568;25.814;2023-06-19T03:43:15;100917.03;;;17.71;100.00
59650;BME280;46162;57.568;25.814;2023-06-19T03:45:44;100918.72;;;17.72;100.00
59650;BME280;46162;57.568;25.814;2023-06-19T03:48:13;100914.56;;;17.76;100.00
59650;BME280;46162;57.568;25.814;2023-06-19T03:50:43;100920.41;;;17.88;100.00
59650;BME280;46162;57.568;25.814;2023-06-19T03:53:12;100926.69;;;17.89;100.00
59650;BME280;46162;57.568;25.814;2023-06-19T03:55:41;100920.84;;;17.92;100.00
59650;BME280;46162;57.568;25.814;2023-06-19T03:58:11;100926.44;;;17.83;100.00
59650;BME280;46162;57.568;25.814;2023-06-19T04:00:41;100929.34;;;17.82;100.00
59650;BME280;46162;57.568;25.814;2023-06-19T04:03:11;100933.50;;;17.78;100.00
59650;BME280;46162;57.568;25.814;2023-06-19T04:05:40;100938.66;;;17.88;100.00
59650;BME280;46162;57.568;25.814;2023-06-19T04:08:12;100932.16;;;17.89;100.00
59650;BME280;46162;57.568;25.814;2023-06-19T04:10:43;100934.31;;;17.93;100.00
59650;BME280;46162;57.568;25.814;2023-06-19T04:13:12;100932.03;;;17.97;100.00
59650;BME280;46162;57.568;25.814;2023-06-19T04:15:40;100932.09;;;18.03;100.00
59650;BME280;46162;57.568;25.814;2023-06-19T04:18:14;100935.41;;;17.99;100.00
59650;BME280;46162;57.568;25.814;2023-06-19T04:20:43;100938.28;;;17.91;100.00
59650;BME280;46162;57.568;25.814;2023-06-19T04:23:13;100942.69;;;17.92;100.00
59650;BME280;46162;57.568;25.814;2023-06-19T04:25:42;100943.16;;;17.95;100.00
59650;BME280;46162;57.568;25.814;2023-06-19T04:28:11;100941.59;;;17.86;100.00
59650;BME280;46162;57.568;25.814;2023-06-19T04:30:39;100938.94;;;17.93;100.00
59650;BME280;46162;57.568;25.814;2023-06-19T04:33:08;100943.75;;;17.91;100.00
59650;BME280;46162;57.568;25.814;2023-06-19T04:35:37;100934.84;;;18.03;100.00
59650;BME280;46162;57.568;25.814;2023-06-19T04:38:07;100942.13;;;18.18;100.00
59650;BME280;46162;57.568;25.814;2023-06-19T04:40:38;100946.53;;;18.19;100.00
59650;BME280;46162;57.568;25.814;2023-06-19T04:43:06;100948.19;;;18.13;100.00
59650;BME280;46162;57.568;25.814;2023-06-19T04:45:35;100949.66;;;18.37;100.00
59650;BME280;46162;57.568;25.814;2023-06-19T04:48:04;100951.16;;;18.18;100.00
59650;BME280;46162;57.568;25.814;2023-06-19T04:50:33;100948.84;;;18.15;100.00
59650;BME280;46162;57.568;25.814;2023-06-19T04:53:01;100959.50;;;18.10;100.00
59650;BME280;46162;57.568;25.814;2023-06-19T04:55:30;100959.63;;;18.23;100.00
59650;BME280;46162;57.568;25.814;2023-06-19T04:58:00;100957.88;;;18.16;100.00
59650;BME280;46162;57.568;25.814;2023-06-19T05:00:29;100961.31;;;18.24;100.00
59650;BME280;46162;57.568;25.814;2023-06-19T05:02:58;100959.81;;;18.22;100.00
59650;BME280;46162;57.568;25.814;2023-06-19T05:05:28;100965.59;;;18.34;100.00
59650;BME280;46162;57.568;25.814;2023-06-19T05:07:56;100959.63;;;18.45;100.00
59650;BME280;46162;57.568;25.814;2023-06-19T05:10:25;100959.81;;;18.72;100.00
59650;BME280;46162;57.568;25.814;2023-06-19T05:12:54;100959.97;;;18.85;100.00
59650;BME280;46162;57.568;25.814;2023-06-19T05:15:24;100967.81;;;18.95;100.00
59650;BME280;46162;57.568;25.814;2023-06-19T05:17:52;100971.31;;;18.82;100.00
59650;BME280;46162;57.568;25.814;2023-06-19T05:20:21;100959.25;;;18.76;100.00
59650;BME280;46162;57.568;25.814;2023-06-19T05:22:50;100968.19;;;18.91;100.00
59650;BME280;46162;57.568;25.814;2023-06-19T05:25:19;100962.16;;;18.75;100.00
59650;BME280;46162;57.568;25.814;2023-06-19T05:27:48;100962.22;;;18.81;100.00
59650;BME280;46162;57.568;25.814;2023-06-19T05:30:17;100967.03;;;19.07;100.00
59650;BME280;46162;57.568;25.814;2023-06-19T05:32:47;100969.78;;;19.07;100.00
59650;BME280;46162;57.568;25.814;2023-06-19T05:35:16;100963.34;;;19.22;100.00
59650;BME280;46162;57.568;25.814;2023-06-19T05:37:45;100966.09;;;19.22;100.00
59650;BME280;46162;57.568;25.814;2023-06-19T05:40:13;100970.53;;;19.29;100.00
59650;BME280;46162;57.568;25.814;2023-06-19T05:42:42;100962.75;;;19.33;100.00
59650;BME280;46162;57.568;25.814;2023-06-19T05:45:11;100969.81;;;19.49;100.00
59650;BME280;46162;57.568;25.814;2023-06-19T05:47:39;100971.06;;;19.53;100.00
59650;BME280;46162;57.568;25.814;2023-06-19T05:50:10;100979.41;;;19.73;100.00
59650;BME280;46162;57.568;25.814;2023-06-19T05:52:39;100979.47;;;19.86;100.00
59650;BME280;46162;57.568;25.814;2023-06-19T05:55:10;100975.47;;;20.02;100.00
59650;BME280;46162;57.568;25.814;2023-06-19T05:57:39;100975.09;;;20.18;100.00
59650;BME280;46162;57.568;25.814;2023-06-19T06:00:09;100977.19;;;20.03;100.00
59650;BME280;46162;57.568;25.814;2023-06-19T06:02:41;100982.72;;;20.43;100.00
59650;BME280;46162;57.568;25.814;2023-06-19T06:05:11;100983.56;;;20.44;100.00
59650;BME280;46162;57.568;25.814;2023-06-19T06:07:40;100982.28;;;20.39;100.00
59650;BME280;46162;57.568;25.814;2023-06-19T06:10:09;100975.59;;;20.55;100.00
59650;BME280;46162;57.568;25.814;2023-06-19T06:12:37;100968.84;;;20.71;100.00
59650;BME280;46162;57.568;25.814;2023-06-19T06:15:07;100970.75;;;20.77;100.00
59650;BME280;46162;57.568;25.814;2023-06-19T06:17:36;100970.50;;;20.92;100.00
59650;BME280;46162;57.568;25.814;2023-06-19T06:20:05;100968.38;;;21.08;100.00
59650;BME280;46162;57.568;25.814;2023-06-19T06:22:40;100961.41;;;21.12;100.00
59650;BME280;46162;57.568;25.814;2023-06-19T06:25:09;100961.19;;;21.07;100.00
59650;BME280;46162;57.568;25.814;2023-06-19T06:27:40;100958.16;;;21.28;100.00
59650;BME280;46162;57.568;25.814;2023-06-19T06:30:10;100959.78;;;21.62;100.00
59650;BME280;46162;57.568;25.814;2023-06-19T06:32:40;100962.88;;;21.73;100.00
59650;BME280;46162;57.568;25.814;2023-06-19T06:35:09;100956.13;;;21.68;100.00
59650;BME280;46162;57.568;25.814;2023-06-19T06:37:37;100956.25;;;21.94;100.00
59650;BME280;46162;57.568;25.814;2023-06-19T06:40:08;100958.50;;;22.03;100.00
59650;BME280;46162;57.568;25.814;2023-06-19T06:42:40;100956.78;;;22.09;100.00
59650;BME280;46162;57.568;25.814;2023-06-19T06:45:09;100958.69;;;22.08;100.00
59650;BME280;46162;57.568;25.814;2023-06-19T06:47:38;100951.03;;;22.10;100.00
59650;BME280;46162;57.568;25.814;2023-06-19T06:50:08;100953.53;;;22.19;100.00
59650;BME280;46162;57.568;25.814;2023-06-19T06:52:37;100954.72;;;22.36;100.00
59650;BME280;46162;57.568;25.814;2023-06-19T06:55:08;100948.47;;;22.47;100.00
59650;BME280;46162;57.568;25.814;2023-06-19T06:57:37;100950.78;;;22.50;100.00
59650;BME280;46162;57.568;25.814;2023-06-19T07:00:06;100949.41;;;22.60;100.00
59650;BME280;46162;57.568;25.814;2023-06-19T07:02:38;100959.53;;;22.66;100.00
59650;BME280;46162;57.568;25.814;2023-06-19T07:05:09;100944.69;;;22.67;100.00
59650;BME280;46162;57.568;25.814;2023-06-19T07:07:38;100946.56;;;22.73;100.00
59650;BME280;46162;57.568;25.814;2023-06-19T07:10:09;100941.84;;;22.80;100.00
59650;BME280;46162;57.568;25.814;2023-06-19T07:12:44;100946.59;;;22.91;100.00
59650;BME280;46162;57.568;25.814;2023-06-19T07:15:13;100942.38;;;22.89;100.00
59650;BME280;46162;57.568;25.814;2023-06-19T07:17:43;100949.06;;;23.00;100.00
59650;BME280;46162;57.568;25.814;2023-06-19T07:20:12;100939.97;;;22.99;100.00
59650;BME280;46162;57.568;25.814;2023-06-19T07:22:41;100945.94;;;23.14;100.00
59650;BME280;46162;57.568;25.814;2023-06-19T07:25:12;100946.34;;;23.18;100.00
59650;BME280;46162;57.568;25.814;2023-06-19T07:27:42;100946.72;;;23.40;100.00
59650;BME280;46162;57.568;25.814;2023-06-19T07:30:12;100953.38;;;23.51;100.00
59650;BME280;46162;57.568;25.814;2023-06-19T07:32:43;100950.69;;;23.63;100.00
59650;BME280;46162;57.568;25.814;2023-06-19T07:35:12;100951.81;;;23.73;100.00
59650;BME280;46162;57.568;25.814;2023-06-19T07:37:41;100950.44;;;23.82;100.00
59650;BME280;46162;57.568;25.814;2023-06-19T07:40:12;100944.94;;;23.82;100.00
59650;BME280;46162;57.568;25.814;2023-06-19T07:42:41;100950.09;;;23.91;95.37
59650;BME280;46162;57.568;25.814;2023-06-19T07:45:12;100944.16;;;23.94;98.22
59650;BME280;46162;57.568;25.814;2023-06-19T07:47:41;100948.91;;;23.87;98.26
59650;BME280;46162;57.568;25.814;2023-06-19T07:50:10;100951.88;;;23.85;92.23
59650;BME280;46162;57.568;25.814;2023-06-19T07:52:38;100950.09;;;23.91;93.72
59650;BME280;46162;57.568;25.814;2023-06-19T07:55:08;100948.63;;;23.76;91.85
59650;BME280;46162;57.568;25.814;2023-06-19T07:57:38;100951.38;;;24.07;82.16
59650;BME280;46162;57.568;25.814;2023-06-19T08:00:08;100945.16;;;24.11;88.78
59650;BME280;46162;57.568;25.814;2023-06-19T08:02:39;100952.22;;;24.07;80.90
59650;BME280;46162;57.568;25.814;2023-06-19T08:05:08;100938.22;;;24.20;78.50
59650;BME280;46162;57.568;25.814;2023-06-19T08:07:37;100955.63;;;24.21;76.95
59650;BME280;46162;57.568;25.814;2023-06-19T08:10:07;100951.91;;;24.27;77.77
59650;BME280;46162;57.568;25.814;2023-06-19T08:12:43;100952.63;;;24.22;73.90
59650;BME280;46162;57.568;25.814;2023-06-19T08:15:12;100947.56;;;24.19;78.53
59650;BME280;46162;57.568;25.814;2023-06-19T08:17:42;100947.91;;;24.11;81.20
59650;BME280;46162;57.568;25.814;2023-06-19T08:20:11;100960.28;;;24.20;71.25
59650;BME280;46162;57.568;25.814;2023-06-19T08:22:39;100958.69;;;24.13;79.89
59650;BME280;46162;57.568;25.814;2023-06-19T08:25:08;100947.47;;;24.26;77.23
59650;BME280;46162;57.568;25.814;2023-06-19T08:27:37;100946.91;;;24.36;67.19
59650;BME280;46162;57.568;25.814;2023-06-19T08:30:08;100950.72;;;24.35;68.78
59650;BME280;46162;57.568;25.814;2023-06-19T08:32:37;100952.88;;;24.33;86.54
59650;BME280;46162;57.568;25.814;2023-06-19T08:35:06;100957.56;;;24.32;77.43
59650;BME280;46162;57.568;25.814;2023-06-19T08:37:35;100950.09;;;24.21;69.69
59650;BME280;46162;57.568;25.814;2023-06-19T08:40:04;100949.94;;;24.04;77.08
59650;BME280;46162;57.568;25.814;2023-06-19T08:42:36;100951.13;;;24.08;77.50
59650;BME280;46162;57.568;25.814;2023-06-19T08:45:08;100947.69;;;24.24;71.75
59650;BME280;46162;57.568;25.814;2023-06-19T08:47:40;100952.75;;;24.28;68.39
59650;BME280;46162;57.568;25.814;2023-06-19T08:50:09;100956.25;;;24.35;79.32
59650;BME280;46162;57.568;25.814;2023-06-19T08:52:38;100949.50;;;24.31;82.18
59650;BME280;46162;57.568;25.814;2023-06-19T08:55:08;100949.50;;;24.31;68.22
59650;BME280;46162;57.568;25.814;2023-06-19T08:57:38;100956.25;;;24.35;72.74
59650;BME280;46162;57.568;25.814;2023-06-19T09:00:09;100957.94;;;24.36;78.47
59650;BME280;46162;57.568;25.814;2023-06-19T09:02:43;100953.59;;;24.40;74.93
59650;BME280;46162;57.568;25.814;2023-06-19T09:05:26;100956.84;;;24.37;84.29
59650;BME280;46162;57.568;25.814;2023-06-19T09:07:56;100951.75;;;24.52;66.80
59650;BME280;46162;57.568;25.814;2023-06-19T09:10:31;100948.16;;;24.63;72.89
59650;BME280;46162;57.568;25.814;2023-06-19T09:13:00;100958.13;;;24.64;70.61
59650;BME280;46162;57.568;25.814;2023-06-19T09:15:33;100957.88;;;24.66;76.88
59650;BME280;46162;57.568;25.814;2023-06-19T09:20:33;100941.81;;;24.86;66.82
59650;BME280;46162;57.568;25.814;2023-06-19T09:23:02;100946.22;;;24.87;81.40
59650;BME280;46162;57.568;25.814;2023-06-19T09:25:31;100938.19;;;24.98;78.96
59650;BME280;46162;57.568;25.814;2023-06-19T09:27:59;100937.56;;;25.31;71.83
59650;BME280;46162;57.568;25.814;2023-06-19T09:30:32;100928.44;;;25.42;71.87
59650;BME280;46162;57.568;25.814;2023-06-19T09:33:06;100940.06;;;25.44;72.52
59650;BME280;46162;57.568;25.814;2023-06-19T09:35:35;100936.88;;;25.64;66.03
59650;BME280;46162;57.568;25.814;2023-06-19T09:38:04;100934.31;;;25.74;65.46
59650;BME280;46162;57.568;25.814;2023-06-19T09:40:33;100935.06;;;25.70;71.77
59650;BME280;46162;57.568;25.814;2023-06-19T09:43:03;100934.00;;;25.59;70.74
59650;BME280;46162;57.568;25.814;2023-06-19T09:45:34;100938.25;;;25.50;64.74
59650;BME280;46162;57.568;25.814;2023-06-19T09:48:04;100928.72;;;25.58;71.95
59650;BME280;46162;57.568;25.814;2023-06-19T09:51:10;100937.13;;;25.63;74.61
59650;BME280;46162;57.568;25.814;2023-06-19T09:53:41;100937.47;;;25.66;66.96
59650;BME280;46162;57.568;25.814;2023-06-19T09:56:12;100928.22;;;25.61;63.26
59650;BME280;46162;57.568;25.814;2023-06-19T09:58:42;100939.25;;;25.72;64.09
59650;BME280;46162;57.568;25.814;2023-06-19T10:01:13;100933.84;;;25.66;64.33
59650;BME280;46162;57.568;25.814;2023-06-19T10:03:43;100934.88;;;25.77;63.70
59650;BME280;46162;57.568;25.814;2023-06-19T10:06:14;100927.06;;;25.85;63.27
59650;BME280;46162;57.568;25.814;2023-06-19T10:08:44;100933.22;;;25.75;57.55
59650;BME280;46162;57.568;25.814;2023-06-19T10:11:13;100927.28;;;25.55;62.59
59650;BME280;46162;57.568;25.814;2023-06-19T10:13:42;100926.72;;;25.82;61.45
59650;BME280;46162;57.568;25.814;2023-06-19T10:16:21;100932.25;;;26.27;59.63
59650;BME280;46162;57.568;25.814;2023-06-19T10:18:50;100919.19;;;26.39;57.31
59650;BME280;46162;57.568;25.814;2023-06-19T10:21:19;100931.25;;;26.33;60.00
59650;BME280;46162;57.568;25.814;2023-06-19T10:23:55;100931.53;;;26.49;56.87
59650;BME280;46162;57.568;25.814;2023-06-19T10:26:31;100935.28;;;26.43;59.59
59650;BME280;46162;57.568;25.814;2023-06-19T10:29:01;100924.13;;;26.37;55.38
59650;BME280;46162;57.568;25.814;2023-06-19T10:31:32;100924.91;;;26.84;60.60
59650;BME280;46162;57.568;25.814;2023-06-19T10:34:03;100917.53;;;27.11;53.67
59650;BME280;46162;57.568;25.814;2023-06-19T10:36:31;100919.34;;;27.22;57.59
59650;BME280;46162;57.568;25.814;2023-06-19T10:39:00;100913.09;;;27.32;54.83
59650;BME280;46162;57.568;25.814;2023-06-19T10:41:29;100919.28;;;27.61;56.58
59650;BME280;46162;57.568;25.814;2023-06-19T10:44:01;100910.56;;;27.75;55.91
59650;BME280;46162;57.568;25.814;2023-06-19T10:46:34;100922.53;;;27.80;54.71
59650;BME280;46162;57.568;25.814;2023-06-19T10:49:05;100916.34;;;27.95;56.51
59650;BME280;46162;57.568;25.814;2023-06-19T10:51:35;100907.97;;;27.90;52.49
59650;BME280;46162;57.568;25.814;2023-06-19T10:54:04;100909.09;;;27.94;54.52
59650;BME280;46162;57.568;25.814;2023-06-19T10:56:33;100913.72;;;28.11;53.46
59650;BME280;46162;57.568;25.814;2023-06-19T10:59:04;100908.66;;;28.35;52.83
59650;BME280;46162;57.568;25.814;2023-06-19T11:01:36;100910.56;;;28.29;52.97
59650;BME280;46162;57.568;25.814;2023-06-19T11:04:06;100908.28;;;28.26;52.76
59650;BME280;46162;57.568;25.814;2023-06-19T11:06:36;100905.69;;;27.82;52.28
59650;BME280;46162;57.568;25.814;2023-06-19T11:09:05;100906.03;;;27.91;53.46
59650;BME280;46162;57.568;25.814;2023-06-19T11:11:36;100898.13;;;28.04;55.61
59650;BME280;46162;57.568;25.814;2023-06-19T11:14:05;100892.25;;;28.33;51.66
59650;BME280;46162;57.568;25.814;2023-06-19T11:16:38;100896.16;;;28.32;54.24
59650;BME280;46162;57.568;25.814;2023-06-19T11:19:07;100894.50;;;28.36;55.15
59650;BME280;46162;57.568;25.814;2023-06-19T11:21:37;100893.00;;;28.56;48.74
59650;BME280;46162;57.568;25.814;2023-06-19T11:24:11;100891.91;;;28.57;56.62
59650;BME280;46162;57.568;25.814;2023-06-19T11:26:41;100898.13;;;28.69;51.71
59650;BME280;46162;57.568;25.814;2023-06-19T11:29:17;100884.16;;;28.59;49.48
59650;BME280;46162;57.568;25.814;2023-06-19T11:31:49;100890.72;;;28.47;55.83
59650;BME280;46162;57.568;25.814;2023-06-19T11:34:18;100890.28;;;28.66;54.97
59650;BME280;46162;57.568;25.814;2023-06-19T11:36:52;100883.59;;;28.24;52.00
59650;BME280;46162;57.568;25.814;2023-06-19T11:39:22;100889.28;;;28.07;53.59
59650;BME280;46162;57.568;25.814;2023-06-19T11:41:51;100890.16;;;28.13;51.59
59650;BME280;46162;57.568;25.814;2023-06-19T11:44:21;100882.59;;;28.41;53.15
59650;BME280;46162;57.568;25.814;2023-06-19T11:46:56;100877.56;;;28.38;53.81
59650;BME280;46162;57.568;25.814;2023-06-19T11:49:26;100878.78;;;28.47;54.53
59650;BME280;46162;57.568;25.814;2023-06-19T11:51:55;100875.13;;;28.41;54.18
59650;BME280;46162;57.568;25.814;2023-06-19T11:54:24;100870.28;;;28.59;52.92
59650;BME280;46162;57.568;25.814;2023-06-19T11:56:53;100864.13;;;28.51;52.61
59650;BME280;46162;57.568;25.814;2023-06-19T11:59:21;100867.25;;;28.33;55.82
59650;BME280;46162;57.568;25.814;2023-06-19T12:01:51;100862.09;;;28.09;52.97
59650;BME280;46162;57.568;25.814;2023-06-19T12:04:20;100854.41;;;28.22;50.78
59650;BME280;46162;57.568;25.814;2023-06-19T12:06:49;100848.44;;;28.03;53.90
59650;BME280;46162;57.568;25.814;2023-06-19T12:09:18;100855.22;;;28.17;56.14
59650;BME280;46162;57.568;25.814;2023-06-19T12:11:46;100856.44;;;28.32;56.68
59650;BME280;46162;57.568;25.814;2023-06-19T12:14:15;100850.66;;;28.06;54.14
59650;BME280;46162;57.568;25.814;2023-06-19T12:16:45;100846.59;;;27.86;53.34
59650;BME280;46162;57.568;25.814;2023-06-19T12:19:15;100849.38;;;27.86;55.22
59650;BME280;46162;57.568;25.814;2023-06-19T12:21:47;100852.34;;;27.80;55.94
59650;BME280;46162;57.568;25.814;2023-06-19T12:24:15;100852.19;;;27.64;51.98
59650;BME280;46162;57.568;25.814;2023-06-19T12:26:44;100834.91;;;27.52;57.61
59650;BME280;46162;57.568;25.814;2023-06-19T12:29:13;100832.66;;;27.54;54.30
59650;BME280;46162;57.568;25.814;2023-06-19T12:31:43;100838.75;;;27.51;51.73
59650;BME280;46162;57.568;25.814;2023-06-19T12:34:12;100835.81;;;27.36;61.00
59650;BME280;46162;57.568;25.814;2023-06-19T12:36:48;100830.41;;;27.24;58.85
59650;BME280;46162;57.568;25.814;2023-06-19T12:39:17;100834.25;;;27.45;60.93
59650;BME280;46162;57.568;25.814;2023-06-19T12:41:46;100843.22;;;27.52;55.12
59650;BME280;46162;57.568;25.814;2023-06-19T12:44:15;100829.94;;;27.59;51.48
59650;BME280;46162;57.568;25.814;2023-06-19T12:46:44;100833.25;;;27.56;57.00
59650;BME280;46162;57.568;25.814;2023-06-19T12:49:13;100825.88;;;27.40;57.07